Thunder radar more information blitzortung!


Löydät sääaseman tiedot myös:

European Weather Network

Finland Weather Exchange

Weather Underground

AWEKAS



Weather Underground säähistoriasivu

Päivittäin yhteenveto Elokuu 9, 2017 Yksiköt:  Englantilaiset    Metriset   Molemmat
« Edellinen Päivä
Seuraava Päivä »
Päivittäin Viikoittain Kuukausittain Vuosittain Mukautettu
  Korkea: Matala: Keskiarvo:
Lämpötila: TemperatureC °F 12.8 °F 16.6 °F
Kastepiste: DewpointC °F 11.8 °F 13.7 °F
Kosteus: Humidity % 63 % 83 %
Tuulen nopeus: WindSpeedKMH mph 0.0 mph 2.1 mph
Tuulenpuuska: WindSpeedGustKMH mph - -
Tuuli:- - SSW
Ilmanpaine: PressurehPa in 1016.1 in -
Sade: 0.0 in    
Historical Graphs
 
 
Taulukkotiedot Elokuu 9, 2017
Aika Lämpötila Kastepiste Ilmanpaine Tuuli Tuulen nopeus Tuulenpuuska Kosteus Sademäärä (tunneittain)
TemperatureC °F DewpointC °F PressurehPa in Calm     Humidity % HourlyPrecipMM in
00:00 13.1 °F 11.8 °F 1019.2 in Calm   4.8 mph 92 % 0.0 in
00:30 13.1 °F 12.2 °F 1019.5 in Calm   4.8 mph 94 % 0.0 in
00:45 13.1 °F 12.1 °F 1019.5 in Calm   3.2 mph 94 % 0.0 in
01:00 13.1 °F 12.3 °F 1019.9 in SW 1.6 mph 8.0 mph 95 % 0.0 in
01:15 13.2 °F 12.4 °F 1019.9 in SW 3.2 mph 12.9 mph 95 % 0.0 in
01:30 13.3 °F 12.5 °F 1019.5 in SSW 1.6 mph 12.9 mph 95 % 0.0 in
01:45 13.2 °F 12.4 °F 1019.9 in Calm   8.0 mph 95 % 0.0 in
02:00 13.1 °F 12.3 °F 1019.5 in SSW 1.6 mph 8.0 mph 95 % 0.0 in
02:15 13.1 °F 12.3 °F 1019.5 in SW 1.6 mph 6.4 mph 95 % 0.0 in
02:30 12.9 °F 12.2 °F 1019.5 in Calm   6.4 mph 95 % 0.0 in
02:45 12.8 °F 12.2 °F 1019.9 in Calm   3.2 mph 96 % 0.0 in
03:00 12.9 °F 12.3 °F 1019.9 in Calm   6.4 mph 96 % 0.0 in
03:15 13.1 °F 12.4 °F 1019.9 in SSW 3.2 mph 9.7 mph 96 % 0.0 in
03:30 13.1 °F 12.4 °F 1019.9 in SW 1.6 mph 8.0 mph 96 % 0.0 in
03:45 13.2 °F 12.5 °F 1019.9 in SW 1.6 mph 6.4 mph 96 % 0.0 in
04:00 13.2 °F 12.5 °F 1019.9 in SSW 1.6 mph 9.7 mph 96 % 0.0 in
04:15 13.2 °F 12.6 °F 1020.2 in SSW 3.2 mph 8.0 mph 96 % 0.0 in
04:30 13.3 °F 12.7 °F 1020.2 in SSW 1.6 mph 11.3 mph 96 % 0.0 in
04:45 13.3 °F 12.7 °F 1020.2 in SSW 3.2 mph 8.0 mph 96 % 0.0 in
05:00 13.3 °F 12.7 °F 1020.2 in SSW 4.8 mph 12.9 mph 96 % 0.0 in
05:15 13.3 °F 12.7 °F 1020.2 in SSW 3.2 mph 11.3 mph 96 % 0.0 in
05:30 13.3 °F 12.7 °F 1020.5 in SW 3.2 mph 9.7 mph 96 % 0.0 in
05:45 13.2 °F 12.6 °F 1020.5 in SW 1.6 mph 8.0 mph 96 % 0.0 in
06:00 13.3 °F 12.7 °F 1020.5 in SSW 1.6 mph 11.3 mph 96 % 0.0 in
06:15 13.3 °F 12.7 °F 1020.5 in SSW 3.2 mph 9.7 mph 96 % 0.0 in
06:30 13.4 °F 13.0 °F 1020.5 in SSW 3.2 mph 9.7 mph 97 % 0.0 in
06:45 13.5 °F 13.0 °F 1020.5 in SSW 3.2 mph 11.3 mph 97 % 0.0 in
07:00 13.8 °F 13.3 °F 1020.2 in SSW 3.2 mph 12.9 mph 97 % 0.0 in
07:15 14.1 °F 13.4 °F 1020.5 in SSW 4.8 mph 11.3 mph 96 % 0.0 in
07:30 14.2 °F 13.6 °F 1020.2 in SW 3.2 mph 9.7 mph 96 % 0.0 in
07:45 14.3 °F 13.7 °F 1020.2 in SSW 3.2 mph 9.7 mph 96 % 0.0 in
08:00 14.6 °F 13.9 °F 1020.5 in SSW 4.8 mph 14.5 mph 96 % 0.0 in
08:15 14.7 °F 13.9 °F 1020.2 in SSW 4.8 mph 14.5 mph 95 % 0.0 in
08:30 14.8 °F 14.0 °F 1020.2 in SSW 3.2 mph 9.7 mph 95 % 0.0 in
08:45 15.0 °F 14.2 °F 1020.5 in SSW 3.2 mph 11.3 mph 95 % 0.0 in
09:00 15.1 °F 14.3 °F 1020.5 in SSW 4.8 mph 11.3 mph 95 % 0.0 in
09:15 15.2 °F 14.4 °F 1020.2 in SSW 3.2 mph 9.7 mph 95 % 0.0 in
09:30 15.4 °F 14.5 °F 1020.2 in SSW 1.6 mph 9.7 mph 94 % 0.0 in
09:45 15.7 °F 14.7 °F 1020.2 in SSW 4.8 mph 16.1 mph 94 % 0.0 in
10:00 16.0 °F 14.9 °F 1020.5 in SSW 3.2 mph 17.7 mph 93 % 0.0 in
10:15 16.2 °F 15.1 °F 1020.2 in SSW 3.2 mph 11.3 mph 93 % 0.0 in
10:30 16.4 °F 15.1 °F 1020.2 in SSW 3.2 mph 11.3 mph 92 % 0.0 in
10:45 16.8 °F 15.1 °F 1020.2 in SSW 4.8 mph 14.5 mph 90 % 0.0 in
11:00 17.1 °F 15.5 °F 1020.2 in SSW 1.6 mph 8.0 mph 90 % 0.0 in
11:15 17.6 °F 15.4 °F 1020.2 in SSW 3.2 mph 16.1 mph 87 % 0.0 in
11:30 18.3 °F 15.8 °F 1020.2 in SSW 4.8 mph 16.1 mph 85 % 0.0 in
11:45 18.8 °F 15.9 °F 1020.2 in SSW 6.4 mph 14.5 mph 83 % 0.0 in
12:00 19.0 °F 15.7 °F 1020.2 in SSW 8.0 mph 19.3 mph 81 % 0.0 in
12:15 19.6 °F 16.0 °F 1020.2 in South 6.4 mph 14.5 mph 80 % 0.0 in
12:30 20.1 °F 15.9 °F 1020.2 in SSW 6.4 mph 16.1 mph 77 % 0.0 in
12:45 20.1 °F 15.5 °F 1019.9 in SSW 6.4 mph 20.9 mph 75 % 0.0 in
13:00 20.6 °F 15.8 °F 1020.2 in SSW 3.2 mph 19.3 mph 74 % 0.0 in
13:15 20.3 °F 15.7 °F 1020.2 in SSW 4.8 mph 17.7 mph 75 % 0.0 in
13:30 20.4 °F 15.0 °F 1020.2 in SSW 6.4 mph 14.5 mph 71 % 0.0 in
13:45 20.7 °F 15.1 °F 1020.2 in SSW 4.8 mph 17.7 mph 70 % 0.0 in
14:00 21.0 °F 14.4 °F 1019.9 in SW 4.8 mph 14.5 mph 66 % 0.0 in
14:15 21.2 °F 14.8 °F 1019.9 in SSW 4.8 mph 16.1 mph 67 % 0.0 in
14:30 21.3 °F 14.4 °F 1019.9 in SSW 6.4 mph 14.5 mph 65 % 0.0 in
14:45 21.2 °F 14.1 °F 1019.9 in SSW 4.8 mph 14.5 mph 64 % 0.0 in
15:00 21.2 °F 14.6 °F 1019.5 in SSW 3.2 mph 11.3 mph 66 % 0.0 in
15:15 20.9 °F 14.6 °F 1019.9 in SSW 4.8 mph 16.1 mph 67 % 0.0 in
15:30 21.1 °F 14.7 °F 1019.9 in SSW 1.6 mph 11.3 mph 67 % 0.0 in
15:45 21.1 °F 14.2 °F 1019.9 in SW 1.6 mph 11.3 mph 65 % 0.0 in
16:00 20.9 °F 14.4 °F 1019.9 in Calm     66 % 0.0 in
16:15 20.5 °F 13.9 °F 1019.5 in Calm     66 % 0.0 in
16:30 20.2 °F 13.7 °F 1019.5 in Calm     66 % 0.0 in
16:45 20.3 °F 13.2 °F 1019.5 in Calm     64 % 0.0 in
17:00 20.3 °F 13.3 °F 1019.2 in Calm     64 % 0.0 in
17:15 20.3 °F 13.3 °F 1019.2 in Calm     64 % 0.0 in
17:30 20.8 °F 13.8 °F 1019.2 in Calm     64 % 0.0 in
17:45 21.1 °F 14.0 °F 1018.8 in Calm     64 % 0.0 in
18:00 20.8 °F 14.0 °F 1018.8 in Calm     65 % 0.0 in
18:15 20.8 °F 13.7 °F 1018.5 in Calm     64 % 0.0 in
18:30 21.0 °F 13.7 °F 1018.5 in Calm     63 % 0.0 in
18:45 20.9 °F 13.9 °F 1018.2 in Calm     64 % 0.0 in
19:00 20.7 °F 14.1 °F 1018.2 in Calm     66 % 0.0 in
19:15 20.3 °F 14.0 °F 1017.8 in Calm     67 % 0.0 in
19:30 19.8 °F 14.0 °F 1017.8 in Calm     69 % 0.0 in
19:45 19.6 °F 14.0 °F 1017.8 in Calm     70 % 0.0 in
20:00 19.5 °F 14.5 °F 1017.8 in Calm     73 % 0.0 in
20:15 19.1 °F 14.5 °F 1017.5 in Calm     75 % 0.0 in
20:30 18.7 °F 14.3 °F 1017.5 in Calm     76 % 0.0 in
20:45 18.5 °F 14.6 °F 1017.5 in Calm     78 % 0.0 in
21:00 18.2 °F 14.7 °F 1017.2 in Calm     80 % 0.0 in
21:15 17.8 °F 14.3 °F 1017.2 in Calm     80 % 0.0 in
21:30 17.5 °F 14.6 °F 1017.2 in Calm     83 % 0.0 in
21:45 17.2 °F 14.8 °F 1017.2 in Calm     86 % 0.0 in
22:00 16.7 °F 14.7 °F 1016.8 in Calm     88 % 0.0 in
22:15 16.2 °F 14.4 °F 1016.8 in Calm     89 % 0.0 in
22:30 15.6 °F 14.0 °F 1016.5 in Calm     90 % 0.0 in
22:45 15.1 °F 13.6 °F 1016.5 in Calm     91 % 0.0 in
23:00 14.6 °F 13.3 °F 1016.5 in Calm     92 % 0.0 in
23:15 14.3 °F 13.2 °F 1016.1 in Calm     93 % 0.0 in
23:30 14.1 °F 12.9 °F 1016.1 in Calm   3.2 mph 93 % 0.0 in
23:45 14.0 °F 12.9 °F 1016.1 in Calm     93 % 0.0 in
Esan sääasema
Terveisin Weather Underground - 2.75 mb

Alkuperäinen skripti  Jim McMurry - jmcmurry@mwt.net Sovitettu myös templatelle  Wim van der Kuil - Leuven-Template.eu

Laitteet joita käytämme:

Sääasema
Davis VP2

Sääasemaohjelma
Cumulus

Sääaseman tietokone
Asus EeePC

Palveluntarjoaja
Suncomet

Davis VP2

Cumulus

Asus EeePC

Suncomet